createdAt,value
2022-09-15T00:04:41.417Z,16.49
2022-09-15T00:09:43.800Z,18.47
2022-09-15T00:14:46.263Z,19.26
2022-09-15T00:19:50.758Z,17.93
2022-09-15T00:24:53.173Z,16.66
2022-09-15T00:29:55.582Z,15.91
2022-09-15T00:34:58.023Z,15.35
2022-09-15T00:40:00.493Z,15.61
2022-09-15T00:45:04.122Z,17.79
2022-09-15T00:50:09.804Z,19.00
2022-09-15T00:55:15.884Z,18.93
2022-09-15T01:00:19.600Z,17.24
2022-09-15T01:05:24.201Z,16.20
2022-09-15T01:10:28.540Z,15.78
2022-09-15T01:15:50.871Z,17.59
2022-09-15T01:20:57.846Z,19.07
2022-09-15T01:26:02.694Z,18.65
2022-09-15T01:31:09.641Z,17.01
2022-09-15T01:36:12.272Z,16.00
2022-09-15T01:41:17.209Z,15.72
2022-09-15T01:46:21.306Z,17.76
2022-09-15T01:51:25.579Z,19.02
2022-09-15T01:56:28.057Z,18.63
2022-09-15T02:01:31.626Z,17.08
2022-09-15T02:06:39.741Z,16.14
2022-09-15T02:11:52.128Z,15.52
2022-09-15T02:16:54.666Z,15.88
2022-09-15T02:22:00.160Z,18.01
2022-09-15T02:27:04.743Z,19.06
2022-09-15T02:32:08.466Z,18.41
2022-09-15T02:37:11.438Z,16.87
2022-09-15T02:42:21.719Z,15.94
2022-09-15T02:47:24.614Z,15.66
2022-09-15T02:52:27.049Z,17.61
2022-09-15T02:57:29.437Z,18.85
2022-09-15T03:02:32.186Z,18.59
2022-09-15T03:07:34.667Z,16.84
2022-09-15T03:12:49.304Z,16.23
2022-09-15T03:17:52.186Z,18.03
2022-09-15T03:22:54.964Z,19.04
2022-09-15T03:27:58.134Z,18.07
2022-09-15T03:33:00.523Z,16.52
2022-09-15T03:38:03.172Z,17.46
2022-09-15T03:43:05.597Z,18.79
2022-09-15T03:48:08.622Z,18.74
2022-09-15T03:53:11.063Z,16.95
2022-09-15T03:58:13.538Z,16.31
2022-09-15T04:03:15.953Z,18.04
2022-09-15T04:08:18.425Z,18.98
2022-09-15T04:13:24.422Z,17.75
2022-09-15T04:18:30.093Z,16.04
2022-09-15T04:23:33.233Z,16.48
2022-09-15T04:28:37.001Z,17.98
2022-09-15T04:33:40.623Z,18.56
2022-09-15T04:38:43.396Z,17.42
2022-09-15T04:43:47.766Z,15.70
2022-09-15T04:48:50.248Z,16.78
2022-09-15T04:53:52.866Z,18.02
2022-09-15T04:59:02.459Z,18.62
2022-09-15T05:04:05.887Z,18.05
2022-09-15T05:09:12.731Z,16.32
2022-09-15T05:14:15.269Z,17.16
2022-09-15T05:19:18.356Z,18.49
2022-09-15T05:24:20.844Z,18.49
2022-09-15T05:29:23.315Z,16.73
2022-09-15T05:34:25.764Z,16.96
2022-09-15T05:39:28.407Z,18.71
2022-09-15T05:44:31.517Z,18.56
2022-09-15T05:49:33.921Z,16.88
2022-09-15T05:54:36.346Z,16.84
2022-09-15T05:59:39.189Z,18.46
2022-09-15T06:04:41.657Z,18.84
2022-09-15T06:09:45.150Z,17.29
2022-09-15T06:14:50.445Z,16.56
2022-09-15T06:19:53.030Z,18.36
2022-09-15T06:24:55.489Z,19.06
2022-09-15T06:29:58.086Z,17.64
2022-09-15T06:35:00.519Z,17.60
2022-09-15T06:40:04.696Z,19.27
2022-09-15T06:45:07.473Z,18.22
2022-09-15T06:50:09.905Z,17.43
2022-09-15T06:55:12.315Z,18.98
2022-09-15T07:00:14.791Z,18.72
2022-09-15T07:05:17.331Z,17.74
2022-09-15T07:10:20.185Z,18.35
2022-09-15T07:15:24.828Z,19.59
2022-09-15T07:20:27.489Z,18.28
2022-09-15T07:25:35.847Z,17.85
2022-09-15T07:30:39.123Z,19.69
2022-09-15T07:35:43.286Z,19.12
2022-09-15T07:40:46.365Z,18.22
2022-09-15T07:45:48.835Z,17.83
2022-09-15T07:50:51.290Z,19.48
2022-09-15T07:55:53.976Z,20.12
2022-09-15T08:01:01.190Z,19.08
2022-09-15T08:06:03.757Z,18.41
2022-09-15T08:11:14.096Z,18.11
2022-09-15T08:16:21.822Z,19.02
2022-09-15T08:21:24.411Z,20.11
2022-09-15T08:26:27.577Z,19.62
2022-09-15T08:31:30.146Z,19.79
2022-09-15T08:36:33.396Z,19.95
2022-09-15T08:41:37.254Z,20.01
2022-09-15T08:46:42.663Z,20.15
2022-09-15T08:51:46.987Z,20.13
2022-09-15T08:56:51.948Z,19.99
2022-09-15T09:02:01.797Z,19.69
2022-09-15T09:07:05.239Z,19.48
2022-09-15T09:12:10.733Z,19.88
2022-09-15T09:17:16.312Z,20.27
2022-09-15T09:22:23.045Z,20.41
2022-09-15T09:27:29.786Z,20.42
2022-09-15T09:32:43.708Z,20.40
2022-09-15T09:37:46.196Z,20.69
2022-09-15T09:42:49.331Z,20.82
2022-09-15T09:47:52.338Z,20.75
2022-09-15T09:52:55.042Z,20.21
2022-09-15T09:58:11.681Z,20.06
2022-09-15T10:03:17.979Z,19.91
2022-09-15T10:08:20.624Z,19.58
2022-09-15T10:13:23.175Z,19.28
2022-09-15T10:18:28.017Z,19.39
2022-09-15T10:23:31.630Z,19.55
2022-09-15T10:28:34.170Z,19.48
2022-09-15T10:33:42.549Z,19.25
2022-09-15T10:38:46.196Z,19.16
2022-09-15T10:43:51.762Z,18.97
2022-09-15T10:49:14.373Z,18.80
2022-09-15T10:54:16.808Z,18.73
2022-09-15T10:59:22.381Z,18.74
2022-09-15T11:04:31.238Z,19.12
2022-09-15T11:09:35.328Z,19.51
2022-09-15T11:14:40.656Z,19.46
2022-09-15T11:19:52.213Z,19.28
2022-09-15T11:24:58.857Z,19.02
2022-09-15T11:30:03.354Z,19.09
2022-09-15T11:35:08.731Z,19.48
2022-09-15T11:40:14.149Z,19.55
2022-09-15T11:45:19.894Z,19.70
2022-09-15T11:50:27.313Z,19.82
2022-09-15T11:55:32.925Z,19.96
2022-09-15T12:00:38.286Z,20.17
2022-09-15T12:05:45.015Z,20.29
2022-09-15T12:10:52.154Z,20.29
2022-09-15T12:15:55.165Z,20.12
2022-09-15T12:21:03.008Z,19.95
2022-09-15T12:26:16.086Z,20.02
2022-09-15T12:31:21.633Z,20.20
2022-09-15T12:36:27.223Z,20.47
2022-09-15T12:41:30.476Z,21.12
2022-09-15T12:46:33.242Z,21.42
2022-09-15T12:51:35.779Z,21.46
2022-09-15T12:56:39.013Z,21.44
2022-09-15T13:01:43.499Z,21.47
2022-09-15T13:07:09.343Z,21.61
2022-09-15T13:12:14.994Z,21.53
2022-09-15T13:17:20.444Z,21.48
2022-09-15T13:22:27.050Z,21.45
2022-09-15T13:27:34.515Z,21.21
2022-09-15T13:32:44.441Z,20.98
2022-09-15T13:38:16.707Z,20.86
2022-09-15T13:43:40.117Z,21.10
2022-09-15T13:48:46.531Z,21.38
2022-09-15T13:53:54.782Z,21.48
2022-09-15T13:59:04.615Z,21.44
2022-09-15T14:04:19.149Z,21.73
2022-09-15T14:09:24.303Z,21.71
2022-09-15T14:14:26.658Z,21.47
2022-09-15T14:19:29.066Z,21.51
2022-09-15T14:24:31.955Z,21.06
2022-09-15T14:29:39.076Z,20.29
2022-09-15T14:34:42.239Z,19.36
2022-09-15T14:39:47.693Z,18.55
2022-09-15T14:50:16.747Z,17.59
2022-09-15T14:55:23.020Z,17.31
2022-09-15T15:00:27.576Z,17.32
2022-09-15T15:05:30.278Z,17.29
2022-09-15T15:10:35.985Z,17.11
2022-09-15T15:15:39.331Z,16.85
2022-09-15T15:20:48.404Z,16.65
2022-09-15T15:25:51.526Z,16.43
2022-09-15T15:31:05.095Z,16.34
2022-09-15T15:36:08.385Z,16.41
2022-09-15T15:41:18.788Z,16.50
2022-09-15T15:46:41.109Z,16.47
2022-09-15T15:51:43.901Z,16.24
2022-09-15T15:56:47.489Z,16.01
2022-09-15T16:01:51.874Z,15.82
2022-09-15T16:06:54.348Z,15.72
2022-09-15T16:16:59.593Z,15.53
2022-09-15T16:22:02.410Z,15.42
2022-09-15T16:27:08.115Z,15.30
2022-09-15T16:32:16.563Z,15.21
2022-09-15T16:37:19.405Z,15.13
2022-09-15T16:42:21.829Z,15.07
2022-09-15T16:47:24.324Z,15.04
2022-09-15T16:52:26.788Z,15.00
2022-09-15T16:57:29.272Z,14.90
2022-09-15T17:02:31.785Z,14.71
2022-09-15T17:07:34.225Z,14.48
2022-09-15T17:12:37.675Z,14.29
2022-09-15T17:17:40.075Z,14.17
2022-09-15T17:22:42.583Z,14.13
2022-09-15T17:27:45.016Z,14.13
2022-09-15T17:32:47.508Z,14.12
2022-09-15T17:37:50.374Z,14.07
2022-09-15T17:42:53.113Z,13.96
2022-09-15T17:47:56.056Z,13.81
2022-09-15T17:52:58.842Z,13.61
2022-09-15T17:58:02.227Z,13.43
2022-09-15T18:03:10.516Z,13.23
2022-09-15T18:08:16.465Z,13.39
2022-09-15T18:13:20.288Z,15.79
2022-09-15T18:18:24.093Z,16.02
2022-09-15T18:23:28.343Z,14.65
2022-09-15T18:28:30.946Z,13.80
2022-09-15T18:33:33.548Z,13.26
2022-09-15T18:38:36.089Z,12.85
2022-09-15T18:43:38.744Z,13.43
2022-09-15T18:48:41.472Z,15.82
2022-09-15T18:53:43.905Z,16.38
2022-09-15T18:58:46.327Z,14.73
2022-09-15T19:03:49.264Z,13.59
2022-09-15T19:08:52.058Z,13.20
2022-09-15T19:13:55.075Z,15.22
2022-09-15T19:18:57.722Z,16.22
2022-09-15T19:24:00.221Z,14.61
2022-09-15T19:29:04.228Z,13.31
2022-09-15T19:34:06.670Z,12.77
2022-09-15T19:39:12.028Z,14.71
2022-09-15T19:44:15.918Z,16.24
2022-09-15T19:49:18.867Z,15.50
2022-09-15T19:54:22.276Z,13.76
2022-09-15T19:59:30.180Z,13.51
2022-09-15T20:04:33.673Z,15.53
2022-09-15T20:09:36.113Z,16.02
2022-09-15T20:14:38.609Z,14.23
2022-09-15T20:19:41.236Z,13.23
2022-09-15T20:24:43.740Z,14.93
2022-09-15T20:29:48.603Z,16.12
2022-09-15T20:34:51.874Z,14.80
2022-09-15T20:39:54.499Z,13.82
2022-09-15T20:44:57.025Z,15.54
2022-09-15T20:49:59.494Z,16.38
2022-09-15T20:55:02.127Z,14.82
2022-09-15T21:00:07.170Z,13.65
2022-09-15T21:05:09.694Z,15.30
2022-09-15T21:10:12.087Z,16.22
2022-09-15T21:15:14.572Z,14.68
2022-09-15T21:20:17.005Z,13.15
2022-09-15T21:25:19.409Z,14.34
2022-09-15T21:30:21.879Z,15.79
2022-09-15T21:35:24.460Z,15.75
2022-09-15T21:40:26.946Z,13.78
2022-09-15T21:45:30.118Z,14.08
2022-09-15T21:50:32.627Z,14.44
2022-09-15T21:55:37.508Z,13.16
2022-09-15T22:00:40.358Z,14.70
2022-09-15T22:05:43.971Z,15.79
2022-09-15T22:10:46.392Z,14.96
2022-09-15T22:15:49.175Z,13.56
2022-09-15T22:20:54.149Z,15.07
2022-09-15T22:25:59.595Z,15.98
2022-09-15T22:31:03.497Z,14.44
2022-09-15T22:36:08.264Z,13.27
2022-09-15T22:41:12.133Z,14.96
2022-09-15T22:46:15.836Z,16.22
2022-09-15T22:51:18.897Z,15.13
2022-09-15T22:56:23.304Z,14.05
2022-09-15T23:01:27.177Z,15.69
2022-09-15T23:06:31.176Z,15.45
2022-09-15T23:11:34.270Z,14.71
2022-09-15T23:16:36.802Z,16.35
2022-09-15T23:21:39.281Z,16.88
2022-09-15T23:26:41.747Z,15.07
2022-09-15T23:31:44.348Z,13.77
2022-09-15T23:36:46.804Z,15.25
2022-09-15T23:41:49.822Z,15.71
2022-09-15T23:46:52.258Z,14.24
2022-09-15T23:51:54.779Z,15.34
2022-09-15T23:56:57.219Z,16.28
